James Turecamo — WDC7565 — position and weather

sailwx.info

Track history (hours):
 
Tides and Currents Weather Stations Pressure Air Temp Water Temp Dewpoint Dewpoint Depression Visibility Wind Speed Wind Dir Waves Ship Positions

James Turecamo

Owner: Moran Towing Corporation, New Canaan, CT. More information available from US FCC via Universal Licensing System and Coast Guard Vessel Documentation Center.

Last reported at 2016-Jul-01 00:14 UTC. Time now 2016-Jul-01 00:55 UTC.
Position N 40°38' W 074°08'.

Length 27 m; draft 4.5 m.

Type: Tug. MMSI: 367073380.

Date/timePositionNaut miles runAvg speedWind from/ knotsBaromVisibWave heightAir tempDewpointWater temp
2016-Jul-01 00:14N 40°38' W 074°08'2 3.0
2016-Jun-30 23:33N 40°40' W 074°08'2 1.9
2016-Jun-30 22:34N 40°39' W 074°09'1 0.1
2016-Jun-30 15:19N 40°38' W 074°08'0 0.0
2016-Jun-30 14:31N 40°38' W 074°08'0 0.0
2016-Jun-30 13:34N 40°38' W 074°08'0 0.0
2016-Jun-30 12:33N 40°38' W 074°08'0 0.5
2016-Jun-30 11:34N 40°39' W 074°08'2 2.1
2016-Jun-30 10:31N 40°41' W 074°08'4 4.0
2016-Jun-30 09:33N 40°39' W 074°03'1 0.8
2016-Jun-30 08:33N 40°39' W 074°04'3 0.3
2016-Jun-29 22:33N 40°39' W 074°08'6 5.9
2016-Jun-29 21:33N 40°41' W 074°01'1 1.2
2016-Jun-29 20:33N 40°40' W 074°01'6 5.1
2016-Jun-29 19:28N 40°39' W 074°08'0 0.1
2016-Jun-29 18:31N 40°38' W 074°08'0 0.0
2016-Jun-29 17:31N 40°38' W 074°08'0 0.0
2016-Jun-29 15:25N 40°38' W 074°08'0 0.0
2016-Jun-29 14:28N 40°38' W 074°08'0 0.0
2016-Jun-29 13:31N 40°38' W 074°08'0 0.0
2016-Jun-29 12:31N 40°38' W 074°08'0 0.0
2016-Jun-29 11:31N 40°38' W 074°08'0 0.0
2016-Jun-29 10:31N 40°38' W 074°08'0 0.0
2016-Jun-29 09:31N 40°38' W 074°08'0 0.0
2016-Jun-29 08:33N 40°38' W 074°08'0 0.0
2016-Jun-29 07:33N 40°38' W 074°08'0 0.0
2016-Jun-29 06:33N 40°38' W 074°08'0 0.0
2016-Jun-29 05:33N 40°38' W 074°08'0 0.0
2016-Jun-29 04:33N 40°38' W 074°08'0 0.0
2016-Jun-29 03:33N 40°38' W 074°08'0 0.0
2016-Jun-29 02:33N 40°38' W 074°08'0 0.0
2016-Jun-29 01:33N 40°38' W 074°08'0 0.0
2016-Jun-29 00:33N 40°38' W 074°08'0 0.0
2016-Jun-28 23:33N 40°38' W 074°08'0 0.0
2016-Jun-28 22:33N 40°38' W 074°08'3 0.5
2016-Jun-28 15:04N 40°38' W 074°12'3 4.4
2016-Jun-28 14:18N 40°38' W 074°08'0 0.0
2016-Jun-28 12:27N 40°38' W 074°08'6 6.5
2016-Jun-28 11:33N 40°44' W 074°06'3 3.1
2016-Jun-28 10:31N 40°47' W 074°05'2 1.5
2016-Jun-28 09:09N 40°48' W 074°03'3 4.3
2016-Jun-28 08:33N 40°47' W 074°05'3 3.1
2016-Jun-28 07:33N 40°44' W 074°06'1 1.0
2016-Jun-28 06:33N 40°44' W 074°07'6 2.9
2016-Jun-28 04:31N 40°38' W 074°08'0 0.0
2016-Jun-28 03:33N 40°38' W 074°08'0 0.0
2016-Jun-28 02:33N 40°38' W 074°08'0 0.0
2016-Jun-28 01:33N 40°38' W 074°08'1 0.8
2016-Jun-28 00:29N 40°39' W 074°07'2 2.6
2016-Jun-27 23:33N 40°41' W 074°08'2 1.6
2016-Jun-27 22:33N 40°40' W 074°09'1 0.4
2016-Jun-27 19:33N 40°38' W 074°08'0 0.0
2016-Jun-27 18:33N 40°38' W 074°08'0 0.0
2016-Jun-27 17:29N 40°38' W 074°08'0 0.0
2016-Jun-27 16:23N 40°38' W 074°08'0 0.0
2016-Jun-27 15:13N 40°38' W 074°08'0 0.0
2016-Jun-27 13:10N 40°38' W 074°08'0 0.0
2016-Jun-27 12:06N 40°38' W 074°08'0 0.0
2016-Jun-27 11:30N 40°38' W 074°08'0 0.0
2016-Jun-27 09:18N 40°38' W 074°08'2 2.6
2016-Jun-27 08:33N 40°40' W 074°08'1 1.2
2016-Jun-27 07:33N 40°41' W 074°09'3 3.0
2016-Jun-27 06:34N 40°38' W 074°08'0 0.0
2016-Jun-27 05:28N 40°38' W 074°08'0 0.0
2016-Jun-27 03:33N 40°38' W 074°08'0 0.0
2016-Jun-27 02:33N 40°38' W 074°08'1 0.6
2016-Jun-27 01:33N 40°39' W 074°07'3 2.7
2016-Jun-27 00:33N 40°39' W 074°03'3 0.8
2016-Jun-26 20:18N 40°38' W 074°08'0 0.0
2016-Jun-26 19:15N 40°38' W 074°08'5 7.9
2016-Jun-26 18:33N 40°44' W 074°07'1 1.1
2016-Jun-26 17:33N 40°43' W 074°07'4 4.3
2016-Jun-26 16:33N 40°38' W 074°08'0 0.0
2016-Jun-26 15:19N 40°38' W 074°08'0 0.0
2016-Jun-26 14:33N 40°38' W 074°08'0 0.0
2016-Jun-26 13:27N 40°38' W 074°08'0 0.0
2016-Jun-26 12:33N 40°38' W 074°08'0 0.0
2016-Jun-26 11:32N 40°38' W 074°08'0 0.0
2016-Jun-26 10:32N 40°38' W 074°08'0 0.0
2016-Jun-26 09:24N 40°38' W 074°08'0 0.0
2016-Jun-26 08:30N 40°38' W 074°08'0 0.0
2016-Jun-26 07:33N 40°38' W 074°08'0 0.0
2016-Jun-26 06:33N 40°38' W 074°08'0 0.0
2016-Jun-26 05:33N 40°38' W 074°08'0 0.0
2016-Jun-26 04:26N 40°38' W 074°08'0 0.0
2016-Jun-26 03:30N 40°38' W 074°08'0 0.0
2016-Jun-26 02:33N 40°38' W 074°08'0 0.0
2016-Jun-26 01:32N 40°38' W 074°08'0 0.0
2016-Jun-26 00:33N 40°38' W 074°08'0 0.0
2016-Jun-25 23:32N 40°38' W 074°08'0 0.0
2016-Jun-25 22:33N 40°38' W 074°08'0 0.0
2016-Jun-25 21:33N 40°38' W 074°08'1 1.1
2016-Jun-25 20:33N 40°39' W 074°06'1 1.0
2016-Jun-25 19:33N 40°39' W 074°05'1 1.2
2016-Jun-25 18:33N 40°40' W 074°04'0 0.0
2016-Jun-25 17:33N 40°40' W 074°04'1 1.0
2016-Jun-25 16:30N 40°39' W 074°05'1 1.1
2016-Jun-25 15:32N 40°40' W 074°04'0 0.0
2016-Jun-25 14:32N 40°40' W 074°04'3 3.1
2016-Jun-25 13:31N 40°38' W 074°08'0 0.0
2016-Jun-25 12:31N 40°38' W 074°08'0 0.0
2016-Jun-25 11:28N 40°38' W 074°08'0 0.0
2016-Jun-25 10:28N 40°38' W 074°08'0 0.0
2016-Jun-25 09:31N 40°38' W 074°08'0 0.0
2016-Jun-25 08:31N 40°38' W 074°08'0 0.0
2016-Jun-25 07:31N 40°38' W 074°08'2 1.9
2016-Jun-25 06:34N 40°39' W 074°10'1 0.4
2016-Jun-25 04:33N 40°39' W 074°11'1 0.4
2016-Jun-25 02:29N 40°38' W 074°12'3 3.3
2016-Jun-25 01:32N 40°38' W 074°08'0 0.0
2016-Jun-25 00:29N 40°38' W 074°08'0 0.0
2016-Jun-24 23:17N 40°38' W 074°08'0 0.0
2016-Jun-24 21:22N 40°38' W 074°08'3 3.1
2016-Jun-24 20:24N 40°41' W 074°08'3 3.4
2016-Jun-24 19:32N 40°38' W 074°08'0 0.0
2016-Jun-24 18:32N 40°38' W 074°08'0 0.0
2016-Jun-24 17:29N 40°38' W 074°08'0 0.0
2016-Jun-24 16:32N 40°38' W 074°08'0 0.0
2016-Jun-24 15:33N 40°38' W 074°08'2 0.7
2016-Jun-24 13:10N 40°39' W 074°10'2 0.2
2016-Jun-24 03:16N 40°38' W 074°12'1 1.8
2016-Jun-24 02:33N 40°39' W 074°11'6 6.1
2016-Jun-24 01:33N 40°38' W 074°03'3 0.8
2016-Jun-23 21:09N 40°38' W 074°08'2 3.6
2016-Jun-23 20:33N 40°41' W 074°08'1 0.7
2016-Jun-23 19:33N 40°41' W 074°09'3 0.6
2016-Jun-23 13:33N 40°38' W 074°12'3 2.3
2016-Jun-23 12:12N 40°38' W 074°08'0 0.0
2016-Jun-23 07:18N 40°38' W 074°08'0 0.0
2016-Jun-23 05:30N 40°38' W 074°08'0 0.0
2016-Jun-23 04:30N 40°38' W 074°08'0 0.0
2016-Jun-23 03:30N 40°38' W 074°08'0 0.1
2016-Jun-23 02:33N 40°39' W 074°08'1 1.4
2016-Jun-23 01:33N 40°40' W 074°08'5 4.9
2016-Jun-23 00:33N 40°37' W 074°03'2 2.4
2016-Jun-22 23:33N 40°39' W 074°05'2 0.8
2016-Jun-22 21:15N 40°39' W 074°08'2 2.6
2016-Jun-22 20:32N 40°39' W 074°05'2 0.1
2016-Jun-21 23:25N 40°39' W 074°08'3 3.4
2016-Jun-21 22:33N 40°41' W 074°08'4 4.4
2016-Jun-21 21:34N 40°39' W 074°04'3 0.2
2016-Jun-21 04:31N 40°38' W 074°08'0 0.0
2016-Jun-21 03:31N 40°38' W 074°08'0 0.0
2016-Jun-21 02:28N 40°38' W 074°08'0 0.0
2016-Jun-21 01:31N 40°38' W 074°08'  
Track history (hours):
 
Tides and Currents Weather Stations Pressure Air Temp Water Temp Dewpoint Dewpoint Depression Visibility Wind Speed Wind Dir Waves Ship Positions

James Turecamo

Owner: Moran Towing Corporation, New Canaan, CT. More information available from US FCC via Universal Licensing System and Coast Guard Vessel Documentation Center.

Last reported at 2016-Jul-01 00:14 UTC. Time now 2016-Jul-01 00:55 UTC.
Position N 40°38' W 074°08'.

Length 27 m; draft 4.5 m.

Type: Tug. MMSI: 367073380.

Date/timePositionNaut miles runAvg speedWind from/ knotsBaromVisibWave heightAir tempDewpointWater temp
2016-Jul-01 00:14N 40°38' W 074°08'2 3.0
2016-Jun-30 23:33N 40°40' W 074°08'2 1.9
2016-Jun-30 22:34N 40°39' W 074°09'1 0.1
2016-Jun-30 15:19N 40°38' W 074°08'0 0.0
2016-Jun-30 14:31N 40°38' W 074°08'0 0.0
2016-Jun-30 13:34N 40°38' W 074°08'0 0.0
2016-Jun-30 12:33N 40°38' W 074°08'0 0.5
2016-Jun-30 11:34N 40°39' W 074°08'2 2.1
2016-Jun-30 10:31N 40°41' W 074°08'4 4.0
2016-Jun-30 09:33N 40°39' W 074°03'1 0.8
2016-Jun-30 08:33N 40°39' W 074°04'3 0.3
2016-Jun-29 22:33N 40°39' W 074°08'6 5.9
2016-Jun-29 21:33N 40°41' W 074°01'1 1.2
2016-Jun-29 20:33N 40°40' W 074°01'6 5.1
2016-Jun-29 19:28N 40°39' W 074°08'0 0.1
2016-Jun-29 18:31N 40°38' W 074°08'0 0.0
2016-Jun-29 17:31N 40°38' W 074°08'0 0.0
2016-Jun-29 15:25N 40°38' W 074°08'0 0.0
2016-Jun-29 14:28N 40°38' W 074°08'0 0.0
2016-Jun-29 13:31N 40°38' W 074°08'0 0.0
2016-Jun-29 12:31N 40°38' W 074°08'0 0.0
2016-Jun-29 11:31N 40°38' W 074°08'0 0.0
2016-Jun-29 10:31N 40°38' W 074°08'0 0.0
2016-Jun-29 09:31N 40°38' W 074°08'0 0.0
2016-Jun-29 08:33N 40°38' W 074°08'0 0.0
2016-Jun-29 07:33N 40°38' W 074°08'0 0.0
2016-Jun-29 06:33N 40°38' W 074°08'0 0.0
2016-Jun-29 05:33N 40°38' W 074°08'0 0.0
2016-Jun-29 04:33N 40°38' W 074°08'0 0.0
2016-Jun-29 03:33N 40°38' W 074°08'0 0.0
2016-Jun-29 02:33N 40°38' W 074°08'0 0.0
2016-Jun-29 01:33N 40°38' W 074°08'0 0.0
2016-Jun-29 00:33N 40°38' W 074°08'0 0.0
2016-Jun-28 23:33N 40°38' W 074°08'0 0.0
2016-Jun-28 22:33N 40°38' W 074°08'3 0.5
2016-Jun-28 15:04N 40°38' W 074°12'3 4.4
2016-Jun-28 14:18N 40°38' W 074°08'0 0.0
2016-Jun-28 12:27N 40°38' W 074°08'6 6.5
2016-Jun-28 11:33N 40°44' W 074°06'3 3.1
2016-Jun-28 10:31N 40°47' W 074°05'2 1.5
2016-Jun-28 09:09N 40°48' W 074°03'3 4.3
2016-Jun-28 08:33N 40°47' W 074°05'3 3.1
2016-Jun-28 07:33N 40°44' W 074°06'1 1.0
2016-Jun-28 06:33N 40°44' W 074°07'6 2.9
2016-Jun-28 04:31N 40°38' W 074°08'0 0.0
2016-Jun-28 03:33N 40°38' W 074°08'0 0.0
2016-Jun-28 02:33N 40°38' W 074°08'0 0.0
2016-Jun-28 01:33N 40°38' W 074°08'1 0.8
2016-Jun-28 00:29N 40°39' W 074°07'2 2.6
2016-Jun-27 23:33N 40°41' W 074°08'2 1.6
2016-Jun-27 22:33N 40°40' W 074°09'1 0.4
2016-Jun-27 19:33N 40°38' W 074°08'0 0.0
2016-Jun-27 18:33N 40°38' W 074°08'0 0.0
2016-Jun-27 17:29N 40°38' W 074°08'0 0.0
2016-Jun-27 16:23N 40°38' W 074°08'0 0.0
2016-Jun-27 15:13N 40°38' W 074°08'0 0.0
2016-Jun-27 13:10N 40°38' W 074°08'0 0.0
2016-Jun-27 12:06N 40°38' W 074°08'0 0.0
2016-Jun-27 11:30N 40°38' W 074°08'0 0.0
2016-Jun-27 09:18N 40°38' W 074°08'2 2.6
2016-Jun-27 08:33N 40°40' W 074°08'1 1.2
2016-Jun-27 07:33N 40°41' W 074°09'3 3.0
2016-Jun-27 06:34N 40°38' W 074°08'0 0.0
2016-Jun-27 05:28N 40°38' W 074°08'0 0.0
2016-Jun-27 03:33N 40°38' W 074°08'0 0.0
2016-Jun-27 02:33N 40°38' W 074°08'1 0.6
2016-Jun-27 01:33N 40°39' W 074°07'3 2.7
2016-Jun-27 00:33N 40°39' W 074°03'3 0.8
2016-Jun-26 20:18N 40°38' W 074°08'0 0.0
2016-Jun-26 19:15N 40°38' W 074°08'5 7.9
2016-Jun-26 18:33N 40°44' W 074°07'1 1.1
2016-Jun-26 17:33N 40°43' W 074°07'4 4.3
2016-Jun-26 16:33N 40°38' W 074°08'0 0.0
2016-Jun-26 15:19N 40°38' W 074°08'0 0.0
2016-Jun-26 14:33N 40°38' W 074°08'0 0.0
2016-Jun-26 13:27N 40°38' W 074°08'0 0.0
2016-Jun-26 12:33N 40°38' W 074°08'0 0.0
2016-Jun-26 11:32N 40°38' W 074°08'0 0.0
2016-Jun-26 10:32N 40°38' W 074°08'0 0.0
2016-Jun-26 09:24N 40°38' W 074°08'0 0.0
2016-Jun-26 08:30N 40°38' W 074°08'0 0.0
2016-Jun-26 07:33N 40°38' W 074°08'0 0.0
2016-Jun-26 06:33N 40°38' W 074°08'0 0.0
2016-Jun-26 05:33N 40°38' W 074°08'0 0.0
2016-Jun-26 04:26N 40°38' W 074°08'0 0.0
2016-Jun-26 03:30N 40°38' W 074°08'0 0.0
2016-Jun-26 02:33N 40°38' W 074°08'0 0.0
2016-Jun-26 01:32N 40°38' W 074°08'0 0.0
2016-Jun-26 00:33N 40°38' W 074°08'0 0.0
2016-Jun-25 23:32N 40°38' W 074°08'0 0.0
2016-Jun-25 22:33N 40°38' W 074°08'0 0.0
2016-Jun-25 21:33N 40°38' W 074°08'1 1.1
2016-Jun-25 20:33N 40°39' W 074°06'1 1.0
2016-Jun-25 19:33N 40°39' W 074°05'1 1.2
2016-Jun-25 18:33N 40°40' W 074°04'0 0.0
2016-Jun-25 17:33N 40°40' W 074°04'1 1.0
2016-Jun-25 16:30N 40°39' W 074°05'1 1.1
2016-Jun-25 15:32N 40°40' W 074°04'0 0.0
2016-Jun-25 14:32N 40°40' W 074°04'3 3.1
2016-Jun-25 13:31N 40°38' W 074°08'0 0.0
2016-Jun-25 12:31N 40°38' W 074°08'0 0.0
2016-Jun-25 11:28N 40°38' W 074°08'0 0.0
2016-Jun-25 10:28N 40°38' W 074°08'0 0.0
2016-Jun-25 09:31N 40°38' W 074°08'0 0.0
2016-Jun-25 08:31N 40°38' W 074°08'0 0.0
2016-Jun-25 07:31N 40°38' W 074°08'2 1.9
2016-Jun-25 06:34N 40°39' W 074°10'1 0.4
2016-Jun-25 04:33N 40°39' W 074°11'1 0.4
2016-Jun-25 02:29N 40°38' W 074°12'3 3.3
2016-Jun-25 01:32N 40°38' W 074°08'0 0.0
2016-Jun-25 00:29N 40°38' W 074°08'0 0.0
2016-Jun-24 23:17N 40°38' W 074°08'0 0.0
2016-Jun-24 21:22N 40°38' W 074°08'3 3.1
2016-Jun-24 20:24N 40°41' W 074°08'3 3.4
2016-Jun-24 19:32N 40°38' W 074°08'0 0.0
2016-Jun-24 18:32N 40°38' W 074°08'0 0.0
2016-Jun-24 17:29N 40°38' W 074°08'0 0.0
2016-Jun-24 16:32N 40°38' W 074°08'0 0.0
2016-Jun-24 15:33N 40°38' W 074°08'2 0.7
2016-Jun-24 13:10N 40°39' W 074°10'2 0.2
2016-Jun-24 03:16N 40°38' W 074°12'1 1.8
2016-Jun-24 02:33N 40°39' W 074°11'6 6.1
2016-Jun-24 01:33N 40°38' W 074°03'3 0.8
2016-Jun-23 21:09N 40°38' W 074°08'2 3.6
2016-Jun-23 20:33N 40°41' W 074°08'1 0.7
2016-Jun-23 19:33N 40°41' W 074°09'3 0.6
2016-Jun-23 13:33N 40°38' W 074°12'3 2.3
2016-Jun-23 12:12N 40°38' W 074°08'0 0.0
2016-Jun-23 07:18N 40°38' W 074°08'0 0.0
2016-Jun-23 05:30N 40°38' W 074°08'0 0.0
2016-Jun-23 04:30N 40°38' W 074°08'0 0.0
2016-Jun-23 03:30N 40°38' W 074°08'0 0.1
2016-Jun-23 02:33N 40°39' W 074°08'1 1.4
2016-Jun-23 01:33N 40°40' W 074°08'5 4.9
2016-Jun-23 00:33N 40°37' W 074°03'2 2.4
2016-Jun-22 23:33N 40°39' W 074°05'2 0.8
2016-Jun-22 21:15N 40°39' W 074°08'2 2.6
2016-Jun-22 20:32N 40°39' W 074°05'2 0.1
2016-Jun-21 23:25N 40°39' W 074°08'3 3.4
2016-Jun-21 22:33N 40°41' W 074°08'4 4.4
2016-Jun-21 21:34N 40°39' W 074°04'3 0.2
2016-Jun-21 04:31N 40°38' W 074°08'0 0.0
2016-Jun-21 03:31N 40°38' W 074°08'0 0.0
2016-Jun-21 02:28N 40°38' W 074°08'0 0.0
2016-Jun-21 01:31N 40°38' W 074°08'  

Dump ship's entire track history